createdAt,value
2022-11-24T00:01:52.199Z,100170.13
2022-11-24T00:06:50.236Z,100176.50
2022-11-24T00:11:46.835Z,100182.19
2022-11-24T00:16:43.517Z,100178.16
2022-11-24T00:21:41.658Z,100172.09
2022-11-24T00:26:38.919Z,100171.38
2022-11-24T00:31:36.594Z,100174.31
2022-11-24T00:36:35.548Z,100180.16
2022-11-24T00:41:32.554Z,100175.16
2022-11-24T00:46:30.358Z,100172.41
2022-11-24T00:51:30.739Z,100180.09
2022-11-24T00:56:30.825Z,100174.84
2022-11-24T01:01:28.475Z,100164.75
2022-11-24T01:06:26.335Z,100175.22
2022-11-24T01:11:24.506Z,100180.81
2022-11-24T01:16:22.227Z,100157.69
2022-11-24T01:21:19.622Z,100188.13
2022-11-24T01:26:17.842Z,100178.91
2022-11-24T01:31:16.754Z,100180.31
2022-11-24T01:36:13.463Z,100184.66
2022-11-24T01:41:14.014Z,100183.44
2022-11-24T01:46:15.543Z,100178.72
2022-11-24T01:51:13.480Z,100177.16
2022-11-24T01:56:12.788Z,100170.28
2022-11-24T02:01:09.787Z,100176.84
2022-11-24T02:06:16.554Z,100177.34
2022-11-24T02:11:13.310Z,100181.19
2022-11-24T02:16:11.079Z,100178.88
2022-11-24T02:21:07.965Z,100178.59
2022-11-24T02:26:13.090Z,100180.97
2022-11-24T02:31:10.743Z,100187.34
2022-11-24T02:36:08.990Z,100190.28
2022-11-24T02:41:07.596Z,100198.44
2022-11-24T02:46:04.518Z,100190.13
2022-11-24T02:51:01.862Z,100194.72
2022-11-24T02:55:58.490Z,100192.81
2022-11-24T03:00:56.644Z,100198.78
2022-11-24T03:05:56.759Z,100192.00
2022-11-24T03:10:55.547Z,100186.06
2022-11-24T03:15:52.257Z,100188.56
2022-11-24T03:20:49.143Z,100189.50
2022-11-24T03:25:45.672Z,100198.59
2022-11-24T03:30:45.522Z,100197.09
2022-11-24T03:35:42.224Z,100195.78
2022-11-24T03:40:38.775Z,100200.75
2022-11-24T03:45:46.118Z,100182.25
2022-11-24T03:50:44.246Z,100200.41
2022-11-24T03:55:43.257Z,100206.47
2022-11-24T04:00:39.922Z,100220.09
2022-11-24T04:05:36.801Z,100197.09
2022-11-24T04:10:35.997Z,100226.84
2022-11-24T04:15:32.551Z,100238.91
2022-11-24T04:20:29.113Z,100246.78
2022-11-24T04:25:25.977Z,100253.13
2022-11-24T04:30:24.115Z,100244.75
2022-11-24T04:35:21.063Z,100249.84
2022-11-24T04:40:18.349Z,100248.75
2022-11-24T04:45:14.978Z,100256.75
2022-11-24T04:50:18.055Z,100254.88
2022-11-24T04:55:14.699Z,100271.91
2022-11-24T05:00:11.955Z,100273.66
2022-11-24T05:05:08.761Z,100264.88
2022-11-24T05:10:24.945Z,100281.66
2022-11-24T05:15:21.836Z,100284.41
2022-11-24T05:20:18.814Z,100279.56
2022-11-24T05:25:17.675Z,100296.88
2022-11-24T05:30:14.265Z,100299.03
2022-11-24T05:35:11.236Z,100301.06
2022-11-24T05:40:10.601Z,100301.47
2022-11-24T05:45:12.179Z,100305.19
2022-11-24T05:50:10.767Z,100322.19
2022-11-24T05:55:08.577Z,100326.56
2022-11-24T06:00:06.313Z,100327.81
2022-11-24T06:05:09.729Z,100338.09
2022-11-24T06:10:07.084Z,100348.94
2022-11-24T06:15:04.363Z,100356.56
2022-11-24T06:20:01.238Z,100362.56
2022-11-24T06:24:58.580Z,100369.19
2022-11-24T06:29:58.426Z,100370.19
2022-11-24T06:34:58.527Z,100381.81
2022-11-24T06:39:55.194Z,100382.34
2022-11-24T06:44:52.535Z,100387.22
2022-11-24T06:49:49.294Z,100386.28
2022-11-24T06:54:46.158Z,100402.13
2022-11-24T06:59:45.963Z,100403.38
2022-11-24T07:04:43.311Z,100407.38
2022-11-24T07:09:42.879Z,100416.53
2022-11-24T07:14:39.637Z,100434.13
2022-11-24T07:19:38.932Z,100437.69
2022-11-24T07:24:36.509Z,100445.72
2022-11-24T07:29:33.593Z,100446.00
2022-11-24T07:34:31.724Z,100455.88
2022-11-24T07:39:28.647Z,100451.75
2022-11-24T07:44:26.122Z,100460.66
2022-11-24T07:49:23.483Z,100437.81
2022-11-24T07:54:20.389Z,100466.75
2022-11-24T07:59:18.838Z,100468.31
2022-11-24T08:04:18.097Z,100470.63
2022-11-24T08:09:19.356Z,100485.38
2022-11-24T08:14:16.523Z,100469.97
2022-11-24T08:19:13.402Z,100499.72
2022-11-24T08:24:13.376Z,100494.06
2022-11-24T08:29:12.447Z,100492.44
2022-11-24T08:34:12.013Z,100481.66
2022-11-24T08:39:16.144Z,100491.75
2022-11-24T08:44:17.656Z,100496.16
2022-11-24T08:49:18.413Z,100498.38
2022-11-24T08:54:18.776Z,100509.97
2022-11-24T08:59:19.072Z,100509.91
2022-11-24T09:04:42.863Z,100503.50
2022-11-24T09:09:43.303Z,100516.47
2022-11-24T09:14:42.231Z,100523.84
2022-11-24T09:19:42.713Z,100525.03
2022-11-24T09:24:39.552Z,100524.78
2022-11-24T09:29:36.761Z,100516.66
2022-11-24T09:34:36.940Z,100516.84
2022-11-24T09:39:33.648Z,100516.41
2022-11-24T09:44:48.627Z,100515.66
2022-11-24T09:49:51.655Z,100513.38
2022-11-24T09:54:51.307Z,100513.19
2022-11-24T09:59:48.067Z,100520.59
2022-11-24T10:04:46.208Z,100515.69
2022-11-24T10:09:53.508Z,100516.22
2022-11-24T10:14:58.409Z,100519.56
2022-11-24T10:19:58.644Z,100515.41
2022-11-24T10:25:04.381Z,100513.84
2022-11-24T10:30:01.397Z,100516.06
2022-11-24T10:35:07.678Z,100492.72
2022-11-24T10:40:26.884Z,100510.47
2022-11-24T10:45:32.094Z,100510.94
2022-11-24T10:50:31.415Z,100508.25
2022-11-24T10:55:52.404Z,100506.59
2022-11-24T11:00:50.884Z,100509.63
2022-11-24T11:05:56.906Z,100507.88
2022-11-24T11:11:18.074Z,100500.53
2022-11-24T11:16:22.817Z,100504.69
2022-11-24T11:21:28.098Z,100498.47
2022-11-24T11:26:32.980Z,100501.31
2022-11-24T11:31:32.563Z,100498.47
2022-11-24T11:36:47.195Z,100510.06
2022-11-24T11:41:45.875Z,100501.06
2022-11-24T11:46:45.052Z,100504.06
2022-11-24T11:51:50.166Z,100504.84
2022-11-24T11:56:49.694Z,100501.31
2022-11-24T12:01:53.454Z,100528.81
2022-11-24T12:06:56.489Z,100525.22
2022-11-24T12:12:02.180Z,100530.66
2022-11-24T12:17:03.875Z,100532.25
2022-11-24T12:22:05.847Z,100549.38
2022-11-24T12:27:05.320Z,100549.59
2022-11-24T12:32:07.623Z,100554.97
2022-11-24T12:37:15.810Z,100551.44
2022-11-24T12:42:20.336Z,100558.03
2022-11-24T12:47:23.194Z,100553.25
2022-11-24T12:52:22.562Z,100551.13
2022-11-24T12:57:23.059Z,100538.66
2022-11-24T13:02:28.620Z,100541.75
2022-11-24T13:07:37.375Z,100535.03
2022-11-24T13:12:34.163Z,100533.03
2022-11-24T13:17:50.265Z,100527.13
2022-11-24T13:22:55.879Z,100535.84
2022-11-24T13:27:52.955Z,100533.78
2022-11-24T13:32:59.370Z,100527.81
2022-11-24T13:37:57.484Z,100541.50
2022-11-24T13:43:12.067Z,100548.50
2022-11-24T13:48:47.604Z,100550.16
2022-11-24T13:53:52.189Z,100557.22
2022-11-24T13:58:50.387Z,100563.66
2022-11-24T14:04:28.113Z,100560.66
2022-11-24T14:09:19.060Z,100560.88
2022-11-24T14:14:24.832Z,100559.28
2022-11-24T14:19:27.842Z,100561.69
2022-11-24T14:24:30.279Z,100574.75
2022-11-24T14:29:32.273Z,100552.66
2022-11-24T14:34:30.783Z,100557.47
2022-11-24T14:39:29.861Z,100577.47
2022-11-24T14:44:30.101Z,100579.09
2022-11-24T14:49:35.463Z,100585.66
2022-11-24T14:54:33.307Z,100593.22
2022-11-24T14:59:33.880Z,100590.22
2022-11-24T15:05:02.234Z,100595.84
2022-11-24T15:09:50.889Z,100593.94
2022-11-24T15:14:50.030Z,100591.16
2022-11-24T15:19:48.218Z,100595.72
2022-11-24T15:24:54.370Z,100608.78
2022-11-24T15:29:51.101Z,100602.09
2022-11-24T15:34:47.904Z,100611.50
2022-11-24T15:39:44.780Z,100613.13
2022-11-24T15:44:42.692Z,100619.06
2022-11-24T15:49:39.748Z,100622.69
2022-11-24T15:54:36.912Z,100626.91
2022-11-24T15:59:37.586Z,100635.53
2022-11-24T16:04:35.234Z,100625.09
2022-11-24T16:09:32.006Z,100623.66
2022-11-24T16:14:28.856Z,100627.81
2022-11-24T16:19:26.128Z,100621.56
2022-11-24T16:24:25.808Z,100615.44
2022-11-24T16:29:23.702Z,100618.28
2022-11-24T16:34:20.492Z,100620.19
2022-11-24T16:39:17.105Z,100628.81
2022-11-24T16:44:16.492Z,100615.97
2022-11-24T16:49:14.454Z,100629.88
2022-11-24T16:54:11.651Z,100621.06
2022-11-24T16:59:08.352Z,100619.06
2022-11-24T17:04:12.738Z,100623.31
2022-11-24T17:09:12.281Z,100629.53
2022-11-24T17:14:10.023Z,100625.28
2022-11-24T17:19:07.292Z,100599.03
2022-11-24T17:24:05.193Z,100623.97
2022-11-24T17:29:10.720Z,100644.19
2022-11-24T17:34:10.469Z,100655.47
2022-11-24T17:39:07.185Z,100647.78
2022-11-24T17:44:03.827Z,100643.50
2022-11-24T17:49:00.918Z,100661.13
2022-11-24T17:53:58.205Z,100655.91
2022-11-24T17:58:58.298Z,100656.97
2022-11-24T18:03:55.056Z,100655.72
2022-11-24T18:09:00.992Z,100652.34
2022-11-24T18:14:02.676Z,100644.00
2022-11-24T18:19:11.579Z,100642.41
2022-11-24T18:24:08.668Z,100652.16
2022-11-24T18:29:08.629Z,100653.00
2022-11-24T18:34:09.095Z,100628.88
2022-11-24T18:39:06.821Z,100666.34
2022-11-24T18:44:10.313Z,100664.44
2022-11-24T18:49:08.017Z,100687.97
2022-11-24T18:54:04.942Z,100679.25
2022-11-24T18:59:01.699Z,100673.84
2022-11-24T19:04:01.631Z,100684.06
2022-11-24T19:09:00.020Z,100676.25
2022-11-24T19:13:59.634Z,100679.81
2022-11-24T19:18:59.330Z,100665.56
2022-11-24T19:24:04.462Z,100650.56
2022-11-24T19:29:06.991Z,100679.81
2022-11-24T19:34:08.039Z,100680.78
2022-11-24T19:39:18.760Z,100676.28
2022-11-24T19:44:16.190Z,100676.53
2022-11-24T19:49:13.431Z,100679.81
2022-11-24T19:54:12.873Z,100677.53
2022-11-24T19:59:09.854Z,100688.00
2022-11-24T20:04:08.365Z,100688.63
2022-11-24T20:09:07.270Z,100688.94
2022-11-24T20:14:04.961Z,100687.31
2022-11-24T20:19:08.329Z,100679.94
2022-11-24T20:24:11.810Z,100692.44
2022-11-24T20:29:10.821Z,100699.84
2022-11-24T20:34:10.323Z,100694.19
2022-11-24T20:39:10.407Z,100696.03
2022-11-24T20:44:10.040Z,100704.16
2022-11-24T20:49:07.417Z,100693.28
2022-11-24T20:54:05.326Z,100694.00
2022-11-24T20:59:02.855Z,100698.44
2022-11-24T21:04:00.718Z,100698.78
2022-11-24T21:09:03.681Z,100703.13
2022-11-24T21:14:00.940Z,100695.91
2022-11-24T21:19:01.277Z,100698.50
2022-11-24T21:23:58.866Z,100701.91
2022-11-24T21:28:59.135Z,100705.50
2022-11-24T21:33:55.742Z,100700.78
2022-11-24T21:38:54.218Z,100694.13
2022-11-24T21:43:52.564Z,100706.19
2022-11-24T21:48:49.166Z,100702.13
2022-11-24T21:53:46.448Z,100708.28
2022-11-24T21:58:47.005Z,100720.16
2022-11-24T22:03:45.131Z,100696.97
2022-11-24T22:08:41.896Z,100728.31
2022-11-24T22:13:42.180Z,100725.06
2022-11-24T22:18:42.216Z,100726.03
2022-11-24T22:23:45.677Z,100704.59
2022-11-24T22:28:43.206Z,100728.75
2022-11-24T22:33:41.913Z,100736.47
2022-11-24T22:38:39.473Z,100725.31
2022-11-24T22:43:36.888Z,100727.13
2022-11-24T22:48:36.995Z,100729.50
2022-11-24T22:53:35.167Z,100734.16
2022-11-24T22:58:32.868Z,100732.44
2022-11-24T23:03:29.737Z,100728.41
2022-11-24T23:08:29.231Z,100735.09
2022-11-24T23:13:25.892Z,100740.19
2022-11-24T23:18:23.323Z,100736.97
2022-11-24T23:23:21.351Z,100742.25
2022-11-24T23:28:18.009Z,100736.59
2022-11-24T23:33:15.839Z,100748.97
2022-11-24T23:38:14.281Z,100751.75
2022-11-24T23:43:10.943Z,100757.47
2022-11-24T23:48:07.990Z,100769.81
2022-11-24T23:53:07.575Z,100770.53
2022-11-24T23:58:08.391Z,100773.69
